createdAt,value
2023-04-29T00:00:29.599Z,0.00
2023-04-29T00:01:29.571Z,0.00
2023-04-29T00:02:31.829Z,0.00
2023-04-29T00:03:29.804Z,0.00
2023-04-29T00:04:29.633Z,0.00
2023-04-29T00:05:29.475Z,0.00
2023-04-29T00:06:29.463Z,0.00
2023-04-29T00:07:29.376Z,0.00
2023-04-29T00:08:29.349Z,0.00
2023-04-29T00:09:29.332Z,0.00
2023-04-29T00:10:29.351Z,0.00
2023-04-29T00:11:29.270Z,0.00
2023-04-29T00:12:29.230Z,0.00
2023-04-29T00:13:29.195Z,0.00
2023-04-29T00:14:29.173Z,0.00
2023-04-29T00:15:29.147Z,0.00
2023-04-29T00:16:29.226Z,0.00
2023-04-29T00:17:29.064Z,0.00
2023-04-29T00:18:29.028Z,0.00
2023-04-29T00:19:29.004Z,0.00
2023-04-29T00:20:28.963Z,0.00
2023-04-29T00:21:28.930Z,0.00
2023-04-29T00:22:28.943Z,0.00
2023-04-29T00:23:28.873Z,0.00
2023-04-29T00:24:28.838Z,0.00
2023-04-29T00:25:28.797Z,0.00
2023-04-29T00:26:34.481Z,0.00
2023-04-29T00:27:28.830Z,0.00
2023-04-29T00:28:28.784Z,0.00
2023-04-29T00:29:28.676Z,0.00
2023-04-29T00:30:28.638Z,0.00
2023-04-29T00:31:28.658Z,0.00
2023-04-29T00:32:28.600Z,0.00
2023-04-29T00:33:28.653Z,0.00
2023-04-29T00:34:28.514Z,0.00
2023-04-29T00:35:28.504Z,0.00
2023-04-29T00:36:28.456Z,0.00
2023-04-29T00:37:28.441Z,0.00
2023-04-29T00:38:28.378Z,0.00
2023-04-29T00:39:28.428Z,0.00
2023-04-29T00:40:28.318Z,0.00
2023-04-29T00:41:28.299Z,0.00
2023-04-29T00:42:28.258Z,0.00
2023-04-29T00:43:28.224Z,0.00
2023-04-29T00:44:28.229Z,0.00
2023-04-29T00:45:28.212Z,0.00
2023-04-29T00:46:28.282Z,0.00
2023-04-29T00:47:28.135Z,0.00
2023-04-29T00:48:28.597Z,0.00
2023-04-29T00:49:28.022Z,0.00
2023-04-29T00:50:28.594Z,0.00
2023-04-29T00:51:27.993Z,0.00
2023-04-29T00:52:27.968Z,0.00
2023-04-29T00:53:27.922Z,0.00
2023-04-29T00:54:27.861Z,0.00
2023-04-29T00:55:27.844Z,0.00
2023-04-29T00:56:29.482Z,0.00
2023-04-29T00:57:27.788Z,0.00
2023-04-29T00:58:27.783Z,0.00
2023-04-29T00:59:27.728Z,0.00
2023-04-29T01:00:28.600Z,0.00
2023-04-29T01:01:27.737Z,0.00
2023-04-29T01:02:27.668Z,0.00
2023-04-29T01:03:27.649Z,0.00
2023-04-29T01:04:27.645Z,0.00
2023-04-29T01:05:27.527Z,0.00
2023-04-29T01:06:27.486Z,0.00
2023-04-29T01:07:27.441Z,0.00
2023-04-29T01:08:27.413Z,0.00
2023-04-29T01:09:27.407Z,0.00
2023-04-29T01:10:28.989Z,0.00
2023-04-29T01:11:27.317Z,0.00
2023-04-29T01:12:27.336Z,0.00
2023-04-29T01:13:27.249Z,0.00
2023-04-29T01:14:27.237Z,0.00
2023-04-29T01:15:27.194Z,0.00
2023-04-29T01:16:27.281Z,0.00
2023-04-29T01:17:27.143Z,0.00
2023-04-29T01:18:27.105Z,0.00
2023-04-29T01:19:27.117Z,0.00
2023-04-29T01:20:27.032Z,0.00
2023-04-29T01:21:27.997Z,0.00
2023-04-29T01:22:26.971Z,0.00
2023-04-29T01:23:26.947Z,0.00
2023-04-29T01:24:26.970Z,0.00
2023-04-29T01:25:26.864Z,0.00
2023-04-29T01:26:26.834Z,0.00
2023-04-29T01:27:27.619Z,0.00
2023-04-29T01:28:26.783Z,0.00
2023-04-29T01:29:26.794Z,0.00
2023-04-29T01:30:26.713Z,0.00
2023-04-29T01:31:26.691Z,0.00
2023-04-29T01:32:26.694Z,0.00
2023-04-29T01:33:26.611Z,0.00
2023-04-29T01:34:26.586Z,0.00
2023-04-29T01:35:26.723Z,0.00
2023-04-29T01:36:26.525Z,0.00
2023-04-29T01:37:26.490Z,0.00
2023-04-29T01:38:26.477Z,0.00
2023-04-29T01:39:26.408Z,0.00
2023-04-29T01:40:26.405Z,0.00
2023-04-29T01:41:26.448Z,0.00
2023-04-29T01:42:26.342Z,0.00
2023-04-29T01:43:26.404Z,0.00
2023-04-29T01:44:26.352Z,0.00
2023-04-29T01:45:26.220Z,0.00
2023-04-29T01:46:26.251Z,0.00
2023-04-29T01:47:26.254Z,0.00
2023-04-29T01:48:26.141Z,0.00
2023-04-29T01:49:26.087Z,0.00
2023-04-29T01:50:26.065Z,0.00
2023-04-29T01:51:26.051Z,0.00
2023-04-29T01:52:26.004Z,0.00
2023-04-29T01:53:26.169Z,0.00
2023-04-29T01:54:25.937Z,0.00
2023-04-29T01:55:25.921Z,0.00
2023-04-29T01:56:25.866Z,0.00
2023-04-29T01:57:25.883Z,0.00
2023-04-29T01:58:25.807Z,0.00
2023-04-29T01:59:25.865Z,0.00
2023-04-29T02:00:25.748Z,0.00
2023-04-29T02:01:26.641Z,0.00
2023-04-29T02:02:25.740Z,0.00
2023-04-29T02:03:25.712Z,0.00
2023-04-29T02:04:25.668Z,0.00
2023-04-29T02:05:25.705Z,0.00
2023-04-29T02:06:25.542Z,0.00
2023-04-29T02:07:25.541Z,0.00
2023-04-29T02:08:25.487Z,0.00
2023-04-29T02:09:26.117Z,0.00
2023-04-29T02:10:25.415Z,0.00
2023-04-29T02:11:25.437Z,0.00
2023-04-29T02:12:25.364Z,0.00
2023-04-29T02:13:25.327Z,0.00
2023-04-29T02:14:25.299Z,0.00
2023-04-29T02:15:25.258Z,0.00
2023-04-29T02:16:25.269Z,0.00
2023-04-29T02:17:25.280Z,0.00
2023-04-29T02:18:25.155Z,0.00
2023-04-29T02:19:25.159Z,0.00
2023-04-29T02:20:25.112Z,0.00
2023-04-29T02:21:25.069Z,0.00
2023-04-29T02:22:25.095Z,0.00
2023-04-29T02:23:25.015Z,0.00
2023-04-29T02:24:24.963Z,0.00
2023-04-29T02:25:24.945Z,0.00
2023-04-29T02:26:24.913Z,0.00
2023-04-29T02:27:24.965Z,0.00
2023-04-29T02:28:24.836Z,0.00
2023-04-29T02:29:24.810Z,0.00
2023-04-29T02:30:24.775Z,0.00
2023-04-29T02:31:24.852Z,0.00
2023-04-29T02:32:24.709Z,0.00
2023-04-29T02:33:24.684Z,0.00
2023-04-29T02:34:24.647Z,0.00
2023-04-29T02:35:24.620Z,0.00
2023-04-29T02:36:24.673Z,0.00
2023-04-29T02:37:24.556Z,0.00
2023-04-29T02:38:24.539Z,0.00
2023-04-29T02:39:24.492Z,0.00
2023-04-29T02:40:24.462Z,0.00
2023-04-29T02:41:24.423Z,0.00
2023-04-29T02:42:24.470Z,0.00
2023-04-29T02:43:24.372Z,0.00
2023-04-29T02:44:24.328Z,0.00
2023-04-29T02:45:24.297Z,0.00
2023-04-29T02:46:24.391Z,0.00
2023-04-29T02:47:24.239Z,0.00
2023-04-29T02:48:24.258Z,0.00
2023-04-29T02:49:24.176Z,0.00
2023-04-29T02:50:24.129Z,0.00
2023-04-29T02:51:24.113Z,0.00
2023-04-29T02:52:24.129Z,0.00
2023-04-29T02:53:24.050Z,0.00
2023-04-29T02:54:24.005Z,0.00
2023-04-29T02:55:23.998Z,0.00
2023-04-29T02:56:23.946Z,0.00
2023-04-29T02:57:23.914Z,0.00
2023-04-29T02:58:23.930Z,0.00
2023-04-29T02:59:23.841Z,0.00
2023-04-29T03:00:23.814Z,0.00
2023-04-29T03:01:23.825Z,0.00
2023-04-29T03:02:23.917Z,0.00
2023-04-29T03:03:24.281Z,0.00
2023-04-29T03:04:23.788Z,0.00
2023-04-29T03:05:23.659Z,0.00
2023-04-29T03:06:23.620Z,0.00
2023-04-29T03:07:23.593Z,0.00
2023-04-29T03:08:23.617Z,0.00
2023-04-29T03:09:23.529Z,0.00
2023-04-29T03:10:23.493Z,0.00
2023-04-29T03:11:23.459Z,0.00
2023-04-29T03:12:23.432Z,0.00
2023-04-29T03:13:23.403Z,0.00
2023-04-29T03:14:23.416Z,0.00
2023-04-29T03:15:23.434Z,0.00
2023-04-29T03:16:23.355Z,4.00
2023-04-29T03:17:23.268Z,4.00
2023-04-29T03:18:23.313Z,4.00
2023-04-29T03:19:23.193Z,0.00
2023-04-29T03:20:23.166Z,4.00
2023-04-29T03:21:23.128Z,4.00
2023-04-29T03:22:23.098Z,4.00
2023-04-29T03:23:23.132Z,8.00
2023-04-29T03:24:23.030Z,8.00
2023-04-29T03:25:23.007Z,8.00
2023-04-29T03:26:22.991Z,8.00
2023-04-29T03:27:22.936Z,12.00
2023-04-29T03:28:22.971Z,16.00
2023-04-29T03:29:22.878Z,20.00
2023-04-29T03:30:22.851Z,28.00
2023-04-29T03:31:22.896Z,28.00
2023-04-29T03:32:22.856Z,32.00
2023-04-29T03:33:22.738Z,36.00
2023-04-29T03:34:22.806Z,44.00
2023-04-29T03:35:22.675Z,48.00
2023-04-29T03:36:22.643Z,56.00
2023-04-29T03:37:22.608Z,64.00
2023-04-29T03:38:22.585Z,72.00
2023-04-29T03:39:22.552Z,84.00
2023-04-29T03:40:22.588Z,80.00
2023-04-29T03:41:22.485Z,72.00
2023-04-29T03:42:22.458Z,64.00
2023-04-29T03:43:22.426Z,60.00
2023-04-29T03:44:22.442Z,68.00
2023-04-29T03:45:22.361Z,88.00
2023-04-29T03:46:22.419Z,92.00
2023-04-29T03:47:22.351Z,80.00
2023-04-29T03:48:22.265Z,88.00
2023-04-29T03:49:22.232Z,84.00
2023-04-29T03:50:22.192Z,72.00
2023-04-29T03:51:22.159Z,64.00
2023-04-29T03:52:22.189Z,80.00
2023-04-29T03:53:22.124Z,92.00
2023-04-29T03:54:22.072Z,92.00
2023-04-29T03:55:22.035Z,104.00
2023-04-29T03:56:22.007Z,132.00
2023-04-29T03:57:22.039Z,132.00
2023-04-29T03:58:21.997Z,116.00
2023-04-29T03:59:21.908Z,108.00
2023-04-29T04:00:21.874Z,108.00
2023-04-29T04:01:21.852Z,112.00
2023-04-29T04:02:21.960Z,108.00
2023-04-29T04:03:21.929Z,112.00
2023-04-29T04:04:21.936Z,104.00
2023-04-29T04:05:21.722Z,100.00
2023-04-29T04:06:21.690Z,108.00
2023-04-29T04:07:21.644Z,124.00
2023-04-29T04:08:21.619Z,140.00
2023-04-29T04:09:21.636Z,172.00
2023-04-29T04:10:21.620Z,184.00
2023-04-29T04:11:21.640Z,164.00
2023-04-29T04:12:25.032Z,172.00
2023-04-29T04:13:21.452Z,224.00
2023-04-29T04:14:21.420Z,228.00
2023-04-29T04:15:21.449Z,228.00
2023-04-29T04:16:21.404Z,232.00
2023-04-29T04:17:21.350Z,208.00
2023-04-29T04:18:21.399Z,208.00
2023-04-29T04:19:21.260Z,212.00
2023-04-29T04:20:21.237Z,240.00
2023-04-29T04:21:21.213Z,248.00
2023-04-29T04:22:22.145Z,252.00
2023-04-29T04:23:21.140Z,264.00
2023-04-29T04:24:21.156Z,272.00
2023-04-29T04:25:21.067Z,256.00
2023-04-29T04:26:21.036Z,248.00
2023-04-29T04:27:21.008Z,240.00
2023-04-29T04:28:20.978Z,236.00
2023-04-29T04:29:20.996Z,232.00
2023-04-29T04:30:20.948Z,232.00
2023-04-29T04:31:20.904Z,240.00
2023-04-29T04:32:20.863Z,256.00
2023-04-29T04:33:20.819Z,260.00
2023-04-29T04:34:20.780Z,280.00
2023-04-29T04:35:20.807Z,272.00
2023-04-29T04:36:20.715Z,280.00
2023-04-29T04:37:20.702Z,296.00
2023-04-29T04:38:20.665Z,296.00
2023-04-29T04:39:20.623Z,308.00
2023-04-29T04:40:20.651Z,340.00
2023-04-29T04:41:20.568Z,356.00
2023-04-29T04:42:20.533Z,368.00
2023-04-29T04:43:20.524Z,372.00
2023-04-29T04:44:20.475Z,344.00
2023-04-29T04:45:20.498Z,404.00
2023-04-29T04:46:20.452Z,408.00
2023-04-29T04:47:20.387Z,384.00
2023-04-29T04:48:20.340Z,372.00
2023-04-29T04:49:20.336Z,372.00
2023-04-29T04:50:22.053Z,372.00
2023-04-29T04:51:20.348Z,364.00
2023-04-29T04:52:20.210Z,364.00
2023-04-29T04:53:20.224Z,436.00
2023-04-29T04:54:20.149Z,432.00
2023-04-29T04:55:20.144Z,420.00
2023-04-29T04:56:20.110Z,464.00
2023-04-29T04:57:20.113Z,480.00
2023-04-29T04:58:20.033Z,484.00
2023-04-29T04:59:19.996Z,432.00
2023-04-29T05:00:19.962Z,472.00
2023-04-29T05:01:21.617Z,504.00
2023-04-29T05:02:20.058Z,520.00
2023-04-29T05:03:19.927Z,584.00
2023-04-29T05:04:19.991Z,528.00
2023-04-29T05:05:19.805Z,600.00
2023-04-29T05:06:19.770Z,620.00
2023-04-29T05:07:19.753Z,580.00
2023-04-29T05:08:19.762Z,540.00
2023-04-29T05:09:19.675Z,648.00
2023-04-29T05:10:19.643Z,632.00
2023-04-29T05:11:19.604Z,636.00
2023-04-29T05:12:19.575Z,732.00
2023-04-29T05:13:19.610Z,736.00
2023-04-29T05:14:19.501Z,792.00
2023-04-29T05:15:19.483Z,856.00
2023-04-29T05:16:19.515Z,800.00
2023-04-29T05:17:19.569Z,952.00
2023-04-29T05:18:19.389Z,796.00
2023-04-29T05:19:19.412Z,896.00
2023-04-29T05:20:19.327Z,832.00
2023-04-29T05:21:19.303Z,972.00
2023-04-29T05:22:19.286Z,972.00
2023-04-29T05:23:19.227Z,1172.00
2023-04-29T05:24:19.199Z,1264.00
2023-04-29T05:25:19.235Z,1164.00
2023-04-29T05:26:19.135Z,1124.00
2023-04-29T05:27:19.116Z,1008.00
2023-04-29T05:28:19.072Z,1060.00
2023-04-29T05:29:19.038Z,996.00
2023-04-29T05:30:19.006Z,1060.00
2023-04-29T05:31:19.072Z,988.00
2023-04-29T05:32:18.956Z,976.00
2023-04-29T05:33:18.919Z,1220.00
2023-04-29T05:34:18.879Z,1236.00
2023-04-29T05:35:18.845Z,1256.00
2023-04-29T05:36:18.822Z,1400.00
2023-04-29T05:37:20.061Z,1584.00
2023-04-29T05:38:18.799Z,1528.00
2023-04-29T05:39:18.713Z,1476.00
2023-04-29T05:40:18.690Z,1268.00
2023-04-29T05:41:18.665Z,1220.00
2023-04-29T05:42:18.620Z,1268.00
2023-04-29T05:43:18.683Z,1416.00
2023-04-29T05:44:18.571Z,1608.00
2023-04-29T05:45:18.532Z,1436.00
2023-04-29T05:46:18.515Z,1540.00
2023-04-29T05:47:18.458Z,1708.00
2023-04-29T05:48:18.447Z,1636.00
2023-04-29T05:49:18.459Z,1656.00
2023-04-29T05:50:18.375Z,1852.00
2023-04-29T05:51:18.335Z,1868.00
2023-04-29T05:52:18.302Z,1856.00
2023-04-29T05:53:18.270Z,1684.00
2023-04-29T05:54:18.340Z,1588.00
2023-04-29T05:55:18.207Z,1508.00
2023-04-29T05:56:18.178Z,1508.00
2023-04-29T05:57:18.147Z,1568.00
2023-04-29T05:58:18.112Z,1504.00
2023-04-29T05:59:18.089Z,1316.00
2023-04-29T06:00:18.117Z,1452.00
2023-04-29T06:01:18.022Z,1556.00
2023-04-29T06:02:18.104Z,1476.00
2023-04-29T06:03:18.025Z,1364.00
2023-04-29T06:04:18.199Z,1328.00
2023-04-29T06:05:18.311Z,1176.00
2023-04-29T06:06:17.963Z,1272.00
2023-04-29T06:07:19.936Z,1196.00
2023-04-29T06:08:17.824Z,1480.00
2023-04-29T06:09:26.902Z,2016.00
2023-04-29T06:10:17.769Z,1800.00
2023-04-29T06:11:17.702Z,1688.00
2023-04-29T06:12:17.719Z,1508.00
2023-04-29T06:13:17.634Z,1452.00
2023-04-29T06:14:17.622Z,1284.00
2023-04-29T06:15:17.644Z,1328.00
2023-04-29T06:16:17.575Z,1108.00
2023-04-29T06:17:17.536Z,1220.00
2023-04-29T06:18:17.539Z,1060.00
2023-04-29T06:19:17.445Z,996.00
2023-04-29T06:20:18.329Z,1036.00
2023-04-29T06:21:17.385Z,1172.00
2023-04-29T06:22:17.365Z,1052.00
2023-04-29T06:23:17.397Z,932.00
2023-04-29T06:24:17.301Z,816.00
2023-04-29T06:25:17.261Z,864.00
2023-04-29T06:26:17.225Z,892.00
2023-04-29T06:27:17.201Z,968.00
2023-04-29T06:28:17.233Z,1008.00
2023-04-29T06:29:17.206Z,1212.00
2023-04-29T06:30:17.093Z,1452.00
2023-04-29T06:31:17.170Z,1860.00
2023-04-29T06:32:18.577Z,2192.00
2023-04-29T06:33:17.011Z,2964.00
2023-04-29T06:34:16.981Z,3192.00
2023-04-29T06:35:17.585Z,4160.00
2023-04-29T06:36:16.910Z,3944.00
2023-04-29T06:37:16.895Z,4696.00
2023-04-29T06:38:16.845Z,4396.00
2023-04-29T06:39:16.817Z,3464.00
2023-04-29T06:40:16.801Z,2924.00
2023-04-29T06:41:19.002Z,2732.00
2023-04-29T06:42:16.725Z,3416.00
2023-04-29T06:43:16.690Z,3092.00
2023-04-29T06:44:16.661Z,3640.00
2023-04-29T06:45:16.631Z,2764.00
2023-04-29T06:46:16.624Z,2400.00
2023-04-29T06:47:16.658Z,2032.00
2023-04-29T06:48:16.529Z,1980.00
2023-04-29T06:49:16.498Z,2304.00
2023-04-29T06:50:16.464Z,2384.00
2023-04-29T06:51:16.441Z,2036.00
2023-04-29T06:52:16.400Z,2392.00
2023-04-29T06:53:16.434Z,2160.00
2023-04-29T06:54:16.334Z,2224.00
2023-04-29T06:55:16.316Z,2236.00
2023-04-29T06:56:17.160Z,2300.00
2023-04-29T06:57:16.237Z,2336.00
2023-04-29T06:58:16.223Z,2260.00
2023-04-29T06:59:16.314Z,2404.00
2023-04-29T07:00:16.143Z,2696.00
2023-04-29T07:01:16.187Z,2512.00
2023-04-29T07:02:16.117Z,2996.00
2023-04-29T07:03:16.192Z,2932.00
2023-04-29T07:04:16.107Z,3144.00
2023-04-29T07:05:15.992Z,3264.00
2023-04-29T07:06:15.966Z,3432.00
2023-04-29T07:07:15.928Z,3140.00
2023-04-29T07:08:15.897Z,2796.00
2023-04-29T07:09:16.589Z,3068.00
2023-04-29T07:10:15.837Z,2772.00
2023-04-29T07:11:15.803Z,2844.00
2023-04-29T07:12:15.764Z,3000.00
2023-04-29T07:13:15.742Z,3032.00
2023-04-29T07:14:15.693Z,2712.00
2023-04-29T07:15:15.773Z,3164.00
2023-04-29T07:16:15.646Z,3400.00
2023-04-29T07:17:15.603Z,2928.00
2023-04-29T07:18:15.576Z,3056.00
2023-04-29T07:19:15.542Z,3548.00
2023-04-29T07:20:15.566Z,3448.00
2023-04-29T07:21:15.586Z,3260.00
2023-04-29T07:22:15.433Z,3300.00
2023-04-29T07:23:15.402Z,3808.00
2023-04-29T07:24:15.368Z,3788.00
2023-04-29T07:25:15.354Z,3044.00
2023-04-29T07:26:15.367Z,3664.00
2023-04-29T07:27:15.294Z,4948.00
2023-04-29T07:28:15.249Z,3828.00
2023-04-29T07:29:15.246Z,4300.00
2023-04-29T07:30:15.197Z,4640.00
2023-04-29T07:31:15.163Z,4684.00
2023-04-29T07:32:15.174Z,3768.00
2023-04-29T07:33:15.093Z,3924.00
2023-04-29T07:34:15.064Z,3436.00
2023-04-29T07:35:15.037Z,3468.00
2023-04-29T07:36:15.714Z,3780.00
2023-04-29T07:37:14.957Z,4348.00
2023-04-29T07:38:14.997Z,4424.00
2023-04-29T07:39:14.911Z,4228.00
2023-04-29T07:40:14.857Z,4572.00
2023-04-29T07:41:14.828Z,4220.00
2023-04-29T07:42:14.792Z,4612.00
2023-04-29T07:43:14.773Z,4216.00
2023-04-29T07:44:15.266Z,4512.00
2023-04-29T07:45:14.741Z,4316.00
2023-04-29T07:46:14.686Z,4572.00
2023-04-29T07:47:14.628Z,4900.00
2023-04-29T07:48:14.594Z,4820.00
2023-04-29T07:49:14.640Z,4960.00
2023-04-29T07:50:14.534Z,4536.00
2023-04-29T07:51:14.522Z,4588.00
2023-04-29T07:52:14.466Z,4140.00
2023-04-29T07:53:14.433Z,3780.00
2023-04-29T07:54:14.424Z,3524.00
2023-04-29T07:55:14.417Z,3464.00
2023-04-29T07:56:14.343Z,3604.00
2023-04-29T07:57:14.303Z,3632.00
2023-04-29T07:58:14.288Z,3744.00
2023-04-29T07:59:14.238Z,3968.00
2023-04-29T08:00:14.209Z,3752.00
2023-04-29T08:01:14.238Z,3928.00
2023-04-29T08:02:14.224Z,4092.00
2023-04-29T08:03:14.216Z,3376.00
2023-04-29T08:04:14.395Z,3308.00
2023-04-29T08:05:14.399Z,3640.00
2023-04-29T08:06:14.093Z,3008.00
2023-04-29T08:07:14.060Z,3628.00
2023-04-29T08:08:13.954Z,4272.00
2023-04-29T08:09:13.924Z,4556.00
2023-04-29T08:10:13.881Z,4572.00
2023-04-29T08:11:13.864Z,4816.00
2023-04-29T08:12:13.886Z,4516.00
2023-04-29T08:13:13.858Z,4512.00
2023-04-29T08:14:13.805Z,4552.00
2023-04-29T08:15:13.725Z,4036.00
2023-04-29T08:16:13.744Z,4156.00
2023-04-29T08:17:13.661Z,4192.00
2023-04-29T08:18:13.624Z,3372.00
2023-04-29T08:19:13.659Z,3728.00
2023-04-29T08:20:13.576Z,3596.00
2023-04-29T08:21:13.534Z,3520.00
2023-04-29T08:22:13.506Z,3340.00
2023-04-29T08:23:13.466Z,3060.00
2023-04-29T08:24:13.438Z,3192.00
2023-04-29T08:25:13.512Z,3560.00
2023-04-29T08:26:13.370Z,3404.00
2023-04-29T08:27:13.357Z,3276.00
2023-04-29T08:28:13.329Z,2972.00
2023-04-29T08:29:13.268Z,3276.00
2023-04-29T08:30:13.261Z,2992.00
2023-04-29T08:31:13.285Z,3260.00
2023-04-29T08:32:13.183Z,3476.00
2023-04-29T08:33:13.205Z,3332.00
2023-04-29T08:34:13.114Z,3180.00
2023-04-29T08:35:13.082Z,3712.00
2023-04-29T08:36:13.052Z,3280.00
2023-04-29T08:37:13.077Z,2644.00
2023-04-29T08:38:12.977Z,2956.00
2023-04-29T08:39:12.958Z,2684.00
2023-04-29T08:40:12.917Z,2724.00
2023-04-29T08:41:12.887Z,2772.00
2023-04-29T08:42:12.934Z,3056.00
2023-04-29T08:43:12.899Z,2908.00
2023-04-29T08:44:12.790Z,2856.00
2023-04-29T08:45:12.758Z,2944.00
2023-04-29T08:46:12.773Z,2916.00
2023-04-29T08:47:12.697Z,2860.00
2023-04-29T08:48:12.805Z,3152.00
2023-04-29T08:49:12.683Z,2772.00
2023-04-29T08:50:12.595Z,3312.00
2023-04-29T08:51:12.570Z,3020.00
2023-04-29T08:52:12.525Z,2612.00
2023-04-29T08:53:12.557Z,2512.00
2023-04-29T08:54:12.461Z,2552.00
2023-04-29T08:55:12.439Z,2352.00
2023-04-29T08:56:12.413Z,2504.00
2023-04-29T08:57:12.365Z,2480.00
2023-04-29T08:58:12.332Z,2444.00
2023-04-29T08:59:12.348Z,2968.00
2023-04-29T09:00:12.274Z,3260.00
2023-04-29T09:01:12.257Z,3116.00
2023-04-29T09:02:12.213Z,3248.00
2023-04-29T09:03:12.242Z,3424.00
2023-04-29T09:04:12.174Z,3384.00
2023-04-29T09:05:12.158Z,3340.00
2023-04-29T09:06:12.081Z,2884.00
2023-04-29T09:07:12.041Z,2732.00
2023-04-29T09:08:12.026Z,2832.00
2023-04-29T09:09:11.979Z,4128.00
2023-04-29T09:10:12.059Z,3428.00
2023-04-29T09:11:11.912Z,2608.00
2023-04-29T09:12:11.880Z,2580.00
2023-04-29T09:13:11.889Z,2640.00
2023-04-29T09:14:11.820Z,2760.00
2023-04-29T09:15:11.775Z,3564.00
2023-04-29T09:16:11.869Z,3208.00
2023-04-29T09:17:11.706Z,3388.00
2023-04-29T09:18:11.696Z,4120.00
2023-04-29T09:19:11.650Z,3476.00
2023-04-29T09:20:11.616Z,3684.00
2023-04-29T09:21:11.589Z,3556.00
2023-04-29T09:22:11.620Z,3148.00
2023-04-29T09:23:11.516Z,3208.00
2023-04-29T09:24:11.483Z,3124.00
2023-04-29T09:25:11.517Z,3156.00
2023-04-29T09:26:11.427Z,3408.00
2023-04-29T09:27:11.385Z,3216.00
2023-04-29T09:28:11.414Z,3020.00
2023-04-29T09:29:11.330Z,2892.00
2023-04-29T09:30:11.288Z,2940.00
2023-04-29T09:31:11.260Z,3944.00
2023-04-29T09:32:11.226Z,4200.00
2023-04-29T09:33:11.246Z,3888.00
2023-04-29T09:34:11.206Z,3828.00
2023-04-29T09:35:11.128Z,4356.00
2023-04-29T09:36:11.100Z,4360.00
2023-04-29T09:37:11.067Z,3712.00
2023-04-29T09:38:11.027Z,3560.00
2023-04-29T09:39:11.012Z,3252.00
2023-04-29T09:40:14.626Z,3184.00
2023-04-29T09:41:10.949Z,3136.00
2023-04-29T09:42:10.961Z,3424.00
2023-04-29T09:43:10.875Z,3488.00
2023-04-29T09:44:11.747Z,3624.00
2023-04-29T09:45:10.873Z,3548.00
2023-04-29T09:46:10.812Z,3988.00
2023-04-29T09:47:11.630Z,3932.00
2023-04-29T09:48:10.710Z,3580.00
2023-04-29T09:49:10.682Z,4216.00
2023-04-29T09:50:10.668Z,4452.00
2023-04-29T09:51:10.605Z,3752.00
2023-04-29T09:52:10.717Z,3672.00
2023-04-29T09:53:10.550Z,3936.00
2023-04-29T09:54:10.561Z,4028.00
2023-04-29T09:55:10.519Z,3924.00
2023-04-29T09:56:10.452Z,3660.00
2023-04-29T09:57:10.421Z,3888.00
2023-04-29T09:58:10.443Z,4448.00
2023-04-29T09:59:10.384Z,4144.00
2023-04-29T10:00:10.338Z,4136.00
2023-04-29T10:01:10.350Z,3972.00
2023-04-29T10:02:10.318Z,4916.00
2023-04-29T10:03:10.269Z,5208.00
2023-04-29T10:04:10.321Z,5732.00
2023-04-29T10:05:10.354Z,5636.00
2023-04-29T10:06:10.120Z,5912.00
2023-04-29T10:07:10.099Z,5468.00
2023-04-29T10:08:10.061Z,5684.00
2023-04-29T10:09:10.050Z,5260.00
2023-04-29T10:10:12.643Z,5308.00
2023-04-29T10:11:15.650Z,5036.00
2023-04-29T10:12:09.915Z,5092.00
2023-04-29T10:13:09.875Z,4524.00
2023-04-29T10:14:09.888Z,4148.00
2023-04-29T10:15:09.830Z,4168.00
2023-04-29T10:16:09.872Z,4052.00
2023-04-29T10:17:09.763Z,4124.00
2023-04-29T10:18:09.780Z,3944.00
2023-04-29T10:19:09.734Z,4000.00
2023-04-29T10:20:09.691Z,3840.00
2023-04-29T10:21:09.635Z,4164.00
2023-04-29T10:22:09.684Z,4136.00
2023-04-29T10:23:09.618Z,4940.00
2023-04-29T10:24:09.538Z,5792.00
2023-04-29T10:25:09.507Z,5260.00
2023-04-29T10:26:09.498Z,6236.00
2023-04-29T10:27:09.560Z,5912.00
2023-04-29T10:28:09.397Z,5388.00
2023-04-29T10:29:09.365Z,5140.00
2023-04-29T10:30:09.331Z,5100.00
2023-04-29T10:31:09.368Z,4252.00
2023-04-29T10:32:09.291Z,3748.00
2023-04-29T10:33:09.334Z,3464.00
2023-04-29T10:34:09.232Z,3336.00
2023-04-29T10:35:09.191Z,3376.00
2023-04-29T10:36:09.166Z,3700.00
2023-04-29T10:37:09.103Z,3880.00
2023-04-29T10:38:09.103Z,3908.00
2023-04-29T10:39:09.100Z,3592.00
2023-04-29T10:40:09.019Z,3688.00
2023-04-29T10:41:08.992Z,3880.00
2023-04-29T10:42:08.993Z,4460.00
2023-04-29T10:43:08.916Z,4748.00
2023-04-29T10:44:08.890Z,4936.00
2023-04-29T10:45:08.966Z,6660.00
2023-04-29T10:46:08.905Z,5336.00
2023-04-29T10:47:08.774Z,4692.00
2023-04-29T10:48:08.838Z,5012.00
2023-04-29T10:49:08.742Z,4916.00
2023-04-29T10:50:08.684Z,5188.00
2023-04-29T10:51:08.647Z,5468.00
2023-04-29T10:52:08.736Z,5660.00
2023-04-29T10:53:08.610Z,5388.00
2023-04-29T10:54:08.572Z,5032.00
2023-04-29T10:55:08.521Z,4868.00
2023-04-29T10:56:08.509Z,5404.00
2023-04-29T10:57:08.450Z,5056.00
2023-04-29T10:58:08.512Z,4964.00
2023-04-29T10:59:08.398Z,6604.00
2023-04-29T11:00:08.356Z,7608.00
2023-04-29T11:01:08.380Z,7524.00
2023-04-29T11:02:08.316Z,6680.00
2023-04-29T11:03:08.344Z,6640.00
2023-04-29T11:04:08.383Z,7452.00
2023-04-29T11:05:08.235Z,8348.00
2023-04-29T11:06:08.258Z,9452.00
2023-04-29T11:07:08.170Z,9888.00
2023-04-29T11:08:08.118Z,10564.00
2023-04-29T11:09:08.068Z,10696.00
2023-04-29T11:10:08.092Z,11384.00
2023-04-29T11:11:08.006Z,12264.00
2023-04-29T11:12:08.002Z,12780.00
2023-04-29T11:13:08.005Z,12952.00
2023-04-29T11:14:07.920Z,12908.00
2023-04-29T11:15:07.934Z,12480.00
2023-04-29T11:16:08.116Z,10424.00
2023-04-29T11:17:07.840Z,10404.00
2023-04-29T11:18:08.685Z,9716.00
2023-04-29T11:19:07.767Z,8468.00
2023-04-29T11:20:07.753Z,6092.00
2023-04-29T11:21:07.723Z,5872.00
2023-04-29T11:22:07.720Z,6252.00
2023-04-29T11:23:07.653Z,10428.00
2023-04-29T11:24:07.662Z,14944.00
2023-04-29T11:25:07.599Z,13484.00
2023-04-29T11:26:07.540Z,12704.00
2023-04-29T11:27:07.515Z,14284.00
2023-04-29T11:28:07.549Z,17280.00
2023-04-29T11:29:07.443Z,18464.00
2023-04-29T11:30:07.419Z,18816.00
2023-04-29T11:31:07.407Z,18720.00
2023-04-29T11:32:07.525Z,18208.00
2023-04-29T11:33:07.414Z,16592.00
2023-04-29T11:34:07.460Z,14036.00
2023-04-29T11:35:07.284Z,12068.00
2023-04-29T11:36:07.241Z,8928.00
2023-04-29T11:37:07.192Z,8428.00
2023-04-29T11:38:07.162Z,7640.00
2023-04-29T11:39:07.152Z,6080.00
2023-04-29T11:40:07.203Z,5924.00
2023-04-29T11:41:07.077Z,6128.00
2023-04-29T11:42:07.100Z,4388.00
2023-04-29T11:43:07.016Z,4716.00
2023-04-29T11:44:06.982Z,5828.00
2023-04-29T11:45:06.979Z,6708.00
2023-04-29T11:46:07.146Z,7124.00
2023-04-29T11:47:06.883Z,5432.00
2023-04-29T11:48:06.934Z,4880.00
2023-04-29T11:49:06.862Z,4564.00
2023-04-29T11:50:06.799Z,4936.00
2023-04-29T11:51:06.861Z,4752.00
2023-04-29T11:52:06.763Z,6576.00
2023-04-29T11:53:06.693Z,9144.00
2023-04-29T11:54:08.218Z,11164.00
2023-04-29T11:55:06.636Z,9552.00
2023-04-29T11:56:06.620Z,6968.00
2023-04-29T11:57:06.670Z,5144.00
2023-04-29T11:58:06.631Z,4916.00
2023-04-29T11:59:06.534Z,7672.00
2023-04-29T12:00:08.681Z,7532.00
2023-04-29T12:01:06.475Z,8992.00
2023-04-29T12:02:06.452Z,7620.00
2023-04-29T12:03:06.588Z,11980.00
2023-04-29T12:04:06.548Z,14424.00
2023-04-29T12:05:06.733Z,11568.00
2023-04-29T12:06:08.301Z,11280.00
2023-04-29T12:07:06.269Z,11160.00
2023-04-29T12:08:06.285Z,11664.00
2023-04-29T12:09:06.310Z,12480.00
2023-04-29T12:10:06.198Z,12924.00
2023-04-29T12:11:06.183Z,9620.00
2023-04-29T12:12:08.020Z,9824.00
2023-04-29T12:13:06.687Z,9296.00
2023-04-29T12:14:06.045Z,10416.00
2023-04-29T12:15:06.127Z,9704.00
2023-04-29T12:16:06.055Z,11072.00
2023-04-29T12:17:05.960Z,12032.00
2023-04-29T12:18:05.973Z,8348.00
2023-04-29T12:19:05.920Z,11748.00
2023-04-29T12:20:05.871Z,10304.00
2023-04-29T12:21:05.907Z,6768.00
2023-04-29T12:22:08.070Z,6872.00
2023-04-29T12:23:05.891Z,11040.00
2023-04-29T12:24:05.765Z,10204.00
2023-04-29T12:25:05.789Z,9200.00
2023-04-29T12:26:05.673Z,8824.00
2023-04-29T12:27:05.705Z,9984.00
2023-04-29T12:28:08.425Z,10964.00